Time;durP1;ratioP1;P1;durP2;ratioP2;P2;SDS_P1;SDS_P2;PMS_P1;PMS_P2;Temp;Humidity;BMP_temperature;BMP_pressure;BME280_temperature;BME280_humidity;BME280_pressure;Samples;Min_cycle;Max_cycle;Signal;HPM_P1;HPM_P2
2023/10/08 00:01:17;;;;;;;14.73;3.17;;;;;;;18.10;72.51;93475.44;5012753;28;20081;-79
2023/10/08 00:04:18;;;;;;;9.32;2.60;;;;;;;18.03;70.59;93475.88;5013964;28;20057;-79
2023/10/08 00:06:35;;;;;;;10.00;2.50;;;;;;;18.01;69.69;93467.50;5012478;28;20512;-79
2023/10/08 00:09:06;;;;;;;10.57;2.30;;;;;;;18.07;67.47;93471.53;5015787;28;20046;-80
2023/10/08 00:11:34;;;;;;;15.95;3.13;;;;;;;18.14;66.50;93470.31;5007257;28;20108;-79
2023/10/08 00:14:01;;;;;;;12.13;3.25;;;;;;;18.22;66.49;93469.56;5015333;28;20030;-78
2023/10/08 00:16:28;;;;;;;12.00;2.80;;;;;;;18.26;66.25;93462.53;5015445;28;20038;-79
2023/10/08 00:18:58;;;;;;;12.30;3.45;;;;;;;18.26;68.06;93465.16;5007489;28;20174;-79
2023/10/08 00:21:27;;;;;;;13.35;2.90;;;;;;;18.23;68.08;93468.44;5014254;28;20056;-79
2023/10/08 00:23:56;;;;;;;13.93;3.15;;;;;;;18.22;68.09;93469.56;5012069;28;20029;-78
2023/10/08 00:26:29;;;;;;;15.45;2.90;;;;;;;18.20;70.64;93466.44;5015122;28;20285;-80
2023/10/08 00:28:59;;;;;;;14.07;2.80;;;;;;;18.12;71.70;93459.22;5029007;28;20042;-79
2023/10/08 00:31:30;;;;;;;14.60;2.92;;;;;;;18.02;72.47;93455.78;5015391;28;20490;-78
2023/10/08 00:33:57;;;;;;;9.82;2.78;;;;;;;17.96;72.38;93458.88;5014117;28;20551;-79
2023/10/08 00:36:23;;;;;;;14.48;3.08;;;;;;;17.91;71.60;93462.47;5014937;28;20049;-78
2023/10/08 00:38:58;;;;;;;13.70;3.10;;;;;;;17.92;70.38;93457.94;5015880;28;20121;-79
2023/10/08 00:41:28;;;;;;;13.07;2.80;;;;;;;17.95;70.53;93452.81;5014057;28;20593;-79
2023/10/08 00:43:56;;;;;;;10.45;2.45;;;;;;;17.93;71.17;93454.22;5014379;28;20033;-79
2023/10/08 00:48:55;;;;;;;13.77;3.05;;;;;;;17.75;75.43;93448.06;5022327;28;20608;-79
2023/10/08 00:51:31;;;;;;;12.73;2.60;;;;;;;17.67;77.05;93447.72;5014993;28;20029;-80
2023/10/08 00:54:07;;;;;;;13.75;3.55;;;;;;;17.58;78.29;93444.25;5023420;28;20045;-79
2023/10/08 00:59:21;;;;;;;12.35;3.08;;;;;;;17.40;79.20;93443.41;5008356;28;20035;-79
2023/10/08 01:01:51;;;;;;;13.52;2.40;;;;;;;17.39;75.88;93439.19;5013138;28;20560;-81
2023/10/08 01:04:26;;;;;;;13.52;3.00;;;;;;;17.41;77.86;93438.91;5012343;28;20053;-80
2023/10/08 01:07:01;;;;;;;15.75;2.40;;;;;;;17.32;79.10;93446.03;5013155;28;20187;-80
2023/10/08 01:09:35;;;;;;;11.23;2.38;;;;;;;17.26;79.94;93437.44;5012873;28;20773;-79
2023/10/08 01:12:19;;;;;;;9.93;2.58;;;;;;;17.19;81.13;93437.09;5026426;28;20422;-81
2023/10/08 01:14:49;;;;;;;16.17;2.97;;;;;;;17.13;81.11;93436.41;5027993;28;20433;-81
2023/10/08 01:17:16;;;;;;;11.77;2.63;;;;;;;17.08;81.55;93439.19;5014281;28;20034;-81
2023/10/08 01:19:56;;;;;;;9.25;2.80;;;;;;;17.13;76.68;93433.00;5029722;28;20093;-81
2023/10/08 01:22:22;;;;;;;11.32;2.53;;;;;;;17.15;73.53;93428.97;5014795;28;20081;-81
2023/10/08 01:24:49;;;;;;;14.30;2.80;;;;;;;17.27;72.32;93434.47;5011086;28;20033;-79
2023/10/08 01:27:24;;;;;;;14.13;2.78;;;;;;;17.37;71.67;93427.38;5011418;28;20026;-80
2023/10/08 01:29:51;;;;;;;13.30;3.13;;;;;;;17.47;71.67;93438.47;5004443;28;20034;-80
2023/10/08 01:32:19;;;;;;;13.52;2.90;;;;;;;17.60;71.42;93436.78;5012715;28;20042;-79
2023/10/08 01:34:45;;;;;;;13.65;2.72;;;;;;;17.62;72.07;93437.25;5012457;28;20056;-80
2023/10/08 01:37:18;;;;;;;13.73;2.80;;;;;;;17.55;74.42;93434.28;5012222;28;20044;-80
2023/10/08 01:39:45;;;;;;;17.08;3.00;;;;;;;17.45;77.27;93431.88;5013051;28;20030;-79
2023/10/08 01:42:17;;;;;;;17.77;2.72;;;;;;;17.32;78.56;93432.78;5013669;28;20038;-80
2023/10/08 01:44:55;;;;;;;15.55;2.92;;;;;;;17.23;79.17;93428.22;5011728;28;20033;-80
2023/10/08 01:47:25;;;;;;;13.77;2.50;;;;;;;17.16;79.19;93422.59;5013747;28;20025;-80
2023/10/08 01:49:57;;;;;;;12.60;2.90;;;;;;;17.12;78.73;93421.66;5012126;28;20401;-79
2023/10/08 01:52:22;;;;;;;15.02;2.53;;;;;;;17.11;78.42;93417.41;5017954;28;20041;-79
2023/10/08 01:54:49;;;;;;;18.58;2.80;;;;;;;17.11;78.64;93421.94;5014652;28;20034;-79
2023/10/08 01:57:16;;;;;;;18.48;2.88;;;;;;;17.11;79.08;93420.06;5012856;28;20041;-79
2023/10/08 01:59:44;;;;;;;13.65;3.38;;;;;;;17.07;79.91;93421.78;5013479;28;20037;-80
2023/10/08 02:02:09;;;;;;;15.55;3.28;;;;;;;17.02;80.07;93417.41;5011177;28;20065;-80
2023/10/08 02:04:35;;;;;;;12.38;3.35;;;;;;;16.99;81.28;93414.56;5021970;28;20030;-79
2023/10/08 02:07:07;;;;;;;16.90;3.40;;;;;;;16.95;80.07;93405.69;5029385;28;20123;-80
2023/10/08 02:09:34;;;;;;;16.83;2.90;;;;;;;16.98;79.83;93411.16;5012706;28;20101;-79
2023/10/08 02:12:00;;;;;;;14.57;3.00;;;;;;;16.96;80.01;93413.31;5012914;28;20030;-79
2023/10/08 02:14:28;;;;;;;14.50;3.47;;;;;;;16.95;79.67;93413.59;5013228;28;20382;-80
2023/10/08 02:16:56;;;;;;;13.82;2.75;;;;;;;16.97;79.28;93406.94;5014390;28;20037;-80
2023/10/08 02:19:27;;;;;;;14.68;2.67;;;;;;;17.02;78.79;93401.53;5012144;28;20034;-80
2023/10/08 02:21:54;;;;;;;14.57;3.63;;;;;;;17.04;78.47;93409.94;5013620;28;20168;-80
2023/10/08 02:24:24;;;;;;;12.02;2.72;;;;;;;17.06;78.03;93402.47;5012729;28;20295;-80
2023/10/08 02:26:57;;;;;;;17.42;2.63;;;;;;;17.04;79.25;93403.84;5011440;28;20437;-80
2023/10/08 02:29:27;;;;;;;21.90;3.20;;;;;;;17.01;79.86;93404.47;5026912;28;20579;-80
2023/10/08 02:31:53;;;;;;;14.35;3.10;;;;;;;17.00;79.92;93402.88;5012767;28;20034;-79
2023/10/08 02:34:19;;;;;;;13.20;2.35;;;;;;;16.98;80.73;93402.44;5013607;28;20026;-80
2023/10/08 02:36:46;;;;;;;14.35;2.92;;;;;;;16.97;80.22;93403.50;5013383;28;20050;-79
2023/10/08 02:39:25;;;;;;;10.70;2.75;;;;;;;16.97;78.69;93400.88;5012074;28;20405;-80
2023/10/08 02:41:54;;;;;;;15.90;3.00;;;;;;;17.06;76.07;93401.69;5005710;28;20110;-80
2023/10/08 02:44:20;;;;;;;15.68;3.00;;;;;;;17.15;75.21;93399.09;5009377;28;20062;-80
2023/10/08 02:46:48;;;;;;;18.50;3.25;;;;;;;17.34;71.09;93396.19;5008803;28;20042;-79
2023/10/08 02:49:22;;;;;;;13.27;2.55;;;;;;;17.48;70.18;93397.66;5012501;28;20490;-80
2023/10/08 02:51:51;;;;;;;16.95;3.38;;;;;;;17.57;70.01;93392.41;5013286;28;20034;-79
2023/10/08 02:54:22;;;;;;;17.33;2.92;;;;;;;17.71;66.41;93391.50;5011486;28;20033;-80
2023/10/08 02:56:51;;;;;;;17.33;2.80;;;;;;;17.81;66.33;93394.69;5013017;28;20041;-80
2023/10/08 02:59:20;;;;;;;16.60;3.30;;;;;;;17.85;67.48;93389.53;5016103;28;20040;-79
2023/10/08 03:01:47;;;;;;;16.13;3.10;;;;;;;17.88;67.51;93399.53;5013167;28;20042;-79
2023/10/08 03:04:19;;;;;;;12.35;3.08;;;;;;;17.85;69.97;93389.53;5014994;28;20478;-79
2023/10/08 03:06:52;;;;;;;18.98;3.67;;;;;;;17.73;72.38;93394.63;5000020;28;20056;-80
2023/10/08 03:09:31;;;;;;;14.75;3.40;;;;;;;17.62;72.08;93394.91;5016801;28;20052;-79
2023/10/08 03:11:58;;;;;;;11.93;3.10;;;;;;;17.55;74.39;93394.56;5016172;28;20116;-79
2023/10/08 03:14:41;;;;;;;15.70;3.22;;;;;;;17.47;74.77;93400.59;5032030;28;20108;-80
2023/10/08 03:17:09;;;;;;;13.43;2.90;;;;;;;17.38;75.34;93394.50;5029439;28;20061;-80
2023/10/08 03:19:35;;;;;;;16.58;2.90;;;;;;;17.32;76.00;93399.16;5016306;28;20037;-79
2023/10/08 03:22:04;;;;;;;13.07;2.78;;;;;;;17.29;75.34;93391.81;5014312;28;20112;-80
2023/10/08 03:24:30;;;;;;;13.27;2.92;;;;;;;17.28;75.67;93392.91;5009670;28;20117;-79
2023/10/08 03:27:06;;;;;;;15.07;2.88;;;;;;;17.27;74.96;93396.66;5014764;28;20397;-79
2023/10/08 03:29:41;;;;;;;14.90;2.83;;;;;;;17.30;74.46;93389.97;5013062;28;20037;-80
2023/10/08 03:32:17;;;;;;;17.65;2.83;;;;;;;17.33;72.09;93392.78;5029629;28;20456;-80
2023/10/08 03:34:46;;;;;;;14.30;3.22;;;;;;;17.42;71.04;93387.53;5023439;28;20128;-80
2023/10/08 03:37:21;;;;;;;18.02;3.22;;;;;;;17.46;70.38;93389.25;5012174;28;20022;-80
2023/10/08 03:39:51;;;;;;;14.40;2.90;;;;;;;17.59;69.79;93392.09;5015491;28;20046;-81
2023/10/08 03:42:22;;;;;;;15.63;3.30;;;;;;;17.60;70.19;93391.78;5017027;28;20045;-79
2023/10/08 03:44:52;;;;;;;11.68;2.90;;;;;;;17.63;70.82;93393.03;5016541;28;20065;-79
2023/10/08 03:47:26;;;;;;;16.70;3.15;;;;;;;17.57;72.40;93389.75;5013739;28;20512;-80
2023/10/08 03:49:54;;;;;;;15.15;2.80;;;;;;;17.53;73.15;93388.81;5016223;28;20628;-80
2023/10/08 03:52:25;;;;;;;16.45;2.78;;;;;;;17.48;74.19;93387.06;4998499;28;20030;-80
2023/10/08 03:57:41;;;;;;;18.48;2.92;;;;;;;17.38;75.92;93391.84;5015328;28;20042;-79
2023/10/08 04:00:13;;;;;;;16.02;3.20;;;;;;;17.32;76.04;93387.81;5014676;28;20289;-80
2023/10/08 04:02:46;;;;;;;14.90;3.20;;;;;;;17.25;76.70;93391.66;5014015;28;20521;-79
2023/10/08 04:05:21;;;;;;;13.30;3.00;;;;;;;17.19;78.52;93387.59;5015570;28;20046;-80
2023/10/08 04:13:10;;;;;;;17.88;3.10;;;;;;;17.01;79.29;93391.25;5014459;28;20135;-80
2023/10/08 04:15:40;;;;;;;14.93;2.72;;;;;;;17.00;78.50;93387.03;5015936;28;20536;-79
2023/10/08 04:18:08;;;;;;;9.73;2.78;;;;;;;17.00;77.91;93384.38;5014414;28;20044;-79
2023/10/08 04:20:38;;;;;;;11.10;3.25;;;;;;;17.01;77.70;93389.38;5021394;28;20053;-80
2023/10/08 04:23:18;;;;;;;17.98;3.00;;;;;;;17.02;77.78;93383.03;5013588;28;20045;-80
2023/10/08 04:25:44;;;;;;;13.13;2.28;;;;;;;17.02;77.24;93384.84;5014315;28;20026;-80
2023/10/08 04:28:17;;;;;;;13.57;3.42;;;;;;;17.02;78.23;93385.66;5015083;28;20504;-80
2023/10/08 04:30:45;;;;;;;16.38;3.33;;;;;;;16.99;78.71;93377.53;5010618;28;20048;-79
2023/10/08 04:33:14;;;;;;;9.00;2.70;;;;;;;16.96;78.70;93381.56;5014377;28;20098;-79
2023/10/08 04:35:55;;;;;;;14.38;2.85;;;;;;;16.92;79.09;93385.13;5014098;28;20042;-79
2023/10/08 04:38:22;;;;;;;12.13;3.10;;;;;;;16.87;79.58;93382.63;5011586;28;20045;-79
2023/10/08 04:40:51;;;;;;;15.45;3.30;;;;;;;16.79;80.83;93379.59;5012534;28;20524;-79
2023/10/08 04:43:30;;;;;;;16.92;3.13;;;;;;;16.77;80.87;93384.38;5014200;28;20038;-80
2023/10/08 04:45:58;;;;;;;8.02;2.47;;;;;;;16.70;81.73;93375.34;5013599;28;20037;-80
2023/10/08 04:48:26;;;;;;;11.40;2.70;;;;;;;16.63;81.94;93373.13;5014635;28;20036;-79
2023/10/08 04:50:58;;;;;;;13.38;2.80;;;;;;;16.62;83.08;93382.13;5014928;28;20065;-79
2023/10/08 04:53:54;;;;;;;9.05;2.70;;;;;;;16.58;83.46;93381.16;5013859;28;20033;-80
2023/10/08 04:56:17;;;;;;;11.23;2.70;;;;;;;16.55;82.73;93385.19;5013520;28;20586;-79
2023/10/08 04:58:47;;;;;;;15.43;2.58;;;;;;;16.53;83.32;93378.66;5014237;28;20065;-79
2023/10/08 05:01:17;;;;;;;11.95;2.80;;;;;;;16.47;84.26;93377.22;5011111;28;20105;-80
2023/10/08 05:09:39;;;;;;;16.33;3.00;;;;;;;16.41;83.64;93381.81;5008983;28;20026;-80
2023/10/08 05:12:10;;;;;;;14.30;2.80;;;;;;;16.41;82.59;93387.09;5010199;28;20521;-80
2023/10/08 05:14:45;;;;;;;9.18;2.40;;;;;;;16.42;82.36;93378.13;5012812;28;20038;-79
2023/10/08 05:17:21;;;;;;;14.75;3.00;;;;;;;16.39;82.45;93379.50;5012695;28;20049;-78
2023/10/08 05:19:50;;;;;;;14.55;2.70;;;;;;;16.39;83.08;93390.06;5011260;28;20133;-79
2023/10/08 05:22:43;;;;;;;7.80;2.53;;;;;;;16.36;84.00;93381.94;5006697;28;20030;-78
2023/10/08 05:30:25;;;;;;;;;;;;;;;16.27;85.39;93384.53;5030546;28;20033;-78
2023/10/08 05:39:01;;;;;;;11.27;2.47;;;;;;;16.23;86.91;93383.56;5006709;28;20408;-77
2023/10/08 06:13:10;;;;;;;8.68;2.72;;;;;;;19.02;72.84;93405.59;5008992;28;20117;-80
2023/10/08 06:15:48;;;;;;;13.73;3.00;;;;;;;19.57;69.95;93418.06;5005794;28;20030;-81
2023/10/08 06:18:19;;;;;;;10.65;2.97;;;;;;;20.07;66.87;93411.25;5011181;28;20076;-80
2023/10/08 06:20:46;;;;;;;12.13;2.75;;;;;;;20.51;66.12;93407.19;5011910;28;20042;-80
2023/10/08 06:23:17;;;;;;;14.25;3.15;;;;;;;20.99;65.41;93405.84;5003034;28;20035;-82
2023/10/08 06:25:46;;;;;;;12.55;2.63;;;;;;;21.54;64.86;93409.19;5008377;28;20389;-82
2023/10/08 06:28:21;;;;;;;9.68;2.65;;;;;;;22.00;63.30;93412.53;5016325;28;20037;-80
2023/10/08 06:30:48;;;;;;;12.93;3.05;;;;;;;22.48;59.43;93414.69;5010691;28;20042;-79
2023/10/08 06:33:14;;;;;;;13.20;2.67;;;;;;;22.98;59.74;93414.16;5013580;28;20034;-79
2023/10/08 06:36:01;;;;;;;15.90;3.22;;;;;;;23.48;56.93;93415.47;5011931;28;20038;-80
2023/10/08 06:38:33;;;;;;;14.95;3.08;;;;;;;23.99;57.64;93414.00;5017000;28;20037;-78
2023/10/08 06:41:00;;;;;;;15.57;2.97;;;;;;;24.50;54.04;93424.69;5014106;28;20077;-78
2023/10/08 06:43:27;;;;;;;20.95;3.70;;;;;;;24.97;53.26;93426.41;5012027;28;20026;-80
2023/10/08 06:45:58;;;;;;;20.15;3.13;;;;;;;25.32;51.21;93423.59;5019843;28;20076;-80
2023/10/08 06:48:24;;;;;;;12.60;3.00;;;;;;;25.65;51.08;93432.97;5016806;28;20030;-80
2023/10/08 06:50:56;;;;;;;10.45;2.50;;;;;;;25.88;50.27;93434.91;5017610;28;20026;-80
2023/10/08 06:53:23;;;;;;;17.85;3.10;;;;;;;26.26;49.10;93428.56;5015898;28;20034;-80
2023/10/08 06:55:56;;;;;;;18.45;3.63;;;;;;;26.77;46.74;93430.81;5013652;28;20026;-80
2023/10/08 06:58:25;;;;;;;10.90;3.35;;;;;;;27.36;45.19;93430.34;5012983;28;20496;-80
2023/10/08 07:00:52;;;;;;;14.30;2.97;;;;;;;27.85;43.43;93437.31;5011637;28;20033;-82
2023/10/08 07:03:18;;;;;;;14.85;3.78;;;;;;;28.07;42.32;93440.19;5013606;28;20030;-80
2023/10/08 07:05:54;;;;;;;17.45;3.22;;;;;;;28.21;42.83;93435.69;5015639;28;20184;-80
2023/10/08 07:08:24;;;;;;;14.70;3.00;;;;;;;28.53;43.44;93448.59;5030322;28;20061;-80
2023/10/08 07:10:53;;;;;;;14.23;3.55;;;;;;;29.11;42.61;93444.25;5015167;28;20033;-80
2023/10/08 07:13:21;;;;;;;13.73;3.33;;;;;;;29.37;41.06;93445.13;5018515;28;20112;-79
2023/10/08 07:15:49;;;;;;;18.27;3.40;;;;;;;29.08;42.63;93438.84;5015928;28;20045;-79
2023/10/08 07:18:21;;;;;;;16.77;2.95;;;;;;;28.96;43.53;93446.13;5014657;28;20034;-80
2023/10/08 07:20:53;;;;;;;16.42;3.63;;;;;;;28.70;43.20;93446.38;5016647;28;20128;-81
2023/10/08 07:23:18;;;;;;;15.05;3.20;;;;;;;28.41;43.68;93441.56;5012189;28;20033;-78
2023/10/08 07:25:53;;;;;;;15.35;3.58;;;;;;;28.21;44.34;93442.97;5033121;28;20032;-79
2023/10/08 07:28:19;;;;;;;15.93;3.97;;;;;;;27.84;44.68;93438.47;5011801;28;20033;-82
2023/10/08 07:30:46;;;;;;;13.18;2.88;;;;;;;27.53;47.21;93448.53;5012767;28;20025;-81
2023/10/08 07:33:17;;;;;;;14.98;3.00;;;;;;;27.74;49.97;93445.28;5017869;28;20054;-81
2023/10/08 07:35:52;;;;;;;;;;;;;;;27.64;51.11;93445.19;5008743;28;20056;-81
2023/10/08 07:38:18;;;;;;;17.63;3.88;;;;;;;27.54;51.45;93444.72;5013812;28;19932;-81
2023/10/08 07:40:44;;;;;;;12.68;3.25;;;;;;;27.39;54.84;93445.72;5012422;28;20029;-80
2023/10/08 07:43:10;;;;;;;18.48;3.40;;;;;;;27.84;51.09;93443.84;5015326;28;20041;-80
2023/10/08 07:45:36;;;;;;;17.38;3.42;;;;;;;27.56;50.60;93447.03;5012507;28;20029;-81
2023/10/08 07:48:09;;;;;;;22.38;4.22;;;;;;;27.90;52.31;93449.66;5010036;28;20042;-80
2023/10/08 07:50:37;;;;;;;15.85;3.20;;;;;;;27.82;52.32;93446.13;5012398;28;20064;-79
2023/10/08 07:53:04;;;;;;;14.73;2.95;;;;;;;28.25;50.49;93449.16;5010192;28;20042;-80
2023/10/08 07:55:32;;;;;;;12.05;3.20;;;;;;;28.28;53.48;93445.72;5015989;28;20046;-78
2023/10/08 07:57:59;;;;;;;12.38;2.85;;;;;;;28.33;52.52;93453.44;5011311;28;20038;-80
2023/10/08 08:00:30;;;;;;;11.02;2.80;;;;;;;27.99;55.84;93447.44;5014025;28;20037;-80
2023/10/08 08:02:57;;;;;;;16.55;3.35;;;;;;;28.10;56.32;93442.13;5015296;28;20057;-82
2023/10/08 08:05:23;;;;;;;15.38;2.97;;;;;;;28.40;53.02;93458.88;5013880;28;20048;-82
2023/10/08 08:07:53;;;;;;;14.63;3.45;;;;;;;28.20;58.80;93447.59;5014538;28;20127;-82
2023/10/08 08:10:19;;;;;;;14.13;2.95;;;;;;;28.41;58.41;93452.31;5010081;28;20038;-81
2023/10/08 08:12:45;;;;;;;12.70;3.28;;;;;;;28.74;58.54;93450.63;5013522;28;20037;-80
2023/10/08 08:15:15;;;;;;;15.30;3.40;;;;;;;28.40;58.93;93450.78;5015518;28;20041;-82
2023/10/08 08:17:42;;;;;;;13.38;3.25;;;;;;;28.14;56.35;93443.69;5010997;28;20058;-82
2023/10/08 08:20:17;;;;;;;13.25;3.28;;;;;;;27.73;58.68;93442.97;4999781;28;20042;-81
2023/10/08 08:22:50;;;;;;;18.42;3.63;;;;;;;27.14;60.35;93448.88;5016460;28;20033;-82
2023/10/08 08:25:26;;;;;;;10.88;3.20;;;;;;;26.49;61.44;93459.94;5016187;28;20128;-82
2023/10/08 08:27:53;;;;;;;14.18;3.65;;;;;;;26.13;62.84;93449.47;5016567;28;20091;-82
2023/10/08 08:30:19;;;;;;;12.30;3.58;;;;;;;26.44;64.57;93444.16;5016710;28;20057;-82
2023/10/08 08:32:49;;;;;;;13.05;3.00;;;;;;;27.19;61.85;93439.72;5015570;28;20044;-82
2023/10/08 08:35:19;;;;;;;12.57;3.33;;;;;;;27.45;56.06;93446.16;5008160;28;20124;-82
2023/10/08 08:37:46;;;;;;;11.63;3.22;;;;;;;27.35;61.17;93447.59;5014887;28;20038;-82
2023/10/08 08:40:17;;;;;;;13.32;3.50;;;;;;;27.40;64.09;93444.56;5016570;28;20029;-82
2023/10/08 08:42:47;;;;;;;13.25;2.72;;;;;;;27.23;60.83;93445.19;5015315;28;20057;-81
2023/10/08 08:45:18;;;;;;;13.52;3.38;;;;;;;26.35;61.28;93442.50;5013144;28;20034;-81
2023/10/08 08:47:45;;;;;;;15.35;3.20;;;;;;;25.88;61.07;93449.09;5012174;28;20037;-81
2023/10/08 08:50:11;;;;;;;13.52;2.85;;;;;;;25.78;62.69;93444.28;5014826;28;20033;-81
2023/10/08 08:52:41;;;;;;;13.93;3.28;;;;;;;26.49;62.83;93441.91;5013720;28;20046;-81
2023/10/08 08:55:14;;;;;;;12.63;3.10;;;;;;;26.93;59.54;93435.19;5014888;28;20476;-81
2023/10/08 08:57:50;;;;;;;11.65;3.00;;;;;;;27.47;56.43;93444.66;5013934;28;20561;-82
2023/10/08 09:00:18;;;;;;;11.32;3.38;;;;;;;27.76;56.28;93436.84;5015211;28;20497;-81
2023/10/08 09:02:49;;;;;;;11.38;2.97;;;;;;;27.23;60.01;93443.25;5014476;28;20416;-81
2023/10/08 09:05:33;;;;;;;18.70;3.60;;;;;;;27.04;60.21;93436.09;5014166;28;20064;-81
2023/10/08 09:08:06;;;;;;;14.25;3.45;;;;;;;26.89;60.01;93439.78;5013372;28;20041;-82
2023/10/08 09:10:37;;;;;;;15.77;3.65;;;;;;;27.06;59.78;93439.19;5013427;28;20112;-81
2023/10/08 09:13:11;;;;;;;11.88;3.03;;;;;;;27.15;62.13;93442.34;5012949;28;20044;-81
2023/10/08 09:15:36;;;;;;;10.07;3.22;;;;;;;27.19;60.77;93437.81;5032396;28;20038;-80
2023/10/08 09:18:04;;;;;;;11.63;3.45;;;;;;;26.68;63.51;93449.13;5031038;28;20397;-80
2023/10/08 09:20:31;;;;;;;11.82;4.60;;;;;;;27.04;63.54;93438.78;5007029;28;20044;-80
2023/10/08 09:23:11;;;;;;;13.57;3.38;;;;;;;26.99;61.32;93441.81;5027809;28;20057;-80
2023/10/08 09:25:41;;;;;;;13.40;3.78;;;;;;;26.97;60.47;93436.78;5012872;28;20509;-81
2023/10/08 09:28:12;;;;;;;9.70;3.47;;;;;;;27.28;60.64;93432.16;5015076;28;20033;-80
2023/10/08 09:30:39;;;;;;;15.23;3.53;;;;;;;27.67;60.20;93431.75;5015098;28;20100;-79
2023/10/08 09:33:09;;;;;;;16.10;3.88;;;;;;;27.98;59.13;93440.50;5014722;28;20057;-80
2023/10/08 09:35:36;;;;;;;12.35;3.03;;;;;;;27.84;53.66;93443.84;5013325;28;20520;-80
2023/10/08 09:38:09;;;;;;;14.88;3.22;;;;;;;27.64;55.12;93431.75;5014924;28;20022;-80
2023/10/08 09:40:40;;;;;;;15.32;3.22;;;;;;;27.88;57.04;93430.44;5006287;28;20049;-81
2023/10/08 09:43:08;;;;;;;16.70;3.13;;;;;;;28.24;55.87;93431.47;5014026;28;20516;-81
2023/10/08 09:45:35;;;;;;;15.45;3.80;;;;;;;28.50;56.50;93432.41;5014251;28;20120;-81
2023/10/08 09:48:01;;;;;;;17.20;3.75;;;;;;;28.10;60.95;93426.78;5008757;28;20052;-81
2023/10/08 09:50:40;;;;;;;15.27;3.58;;;;;;;27.75;60.92;93428.00;5010222;28;20065;-79
2023/10/08 09:53:22;;;;;;;16.15;4.00;;;;;;;27.55;63.39;93435.50;5027159;28;20034;-81
2023/10/08 09:55:54;;;;;;;;;;;;;;;27.83;63.63;93428.81;5014268;28;20038;-81
2023/10/08 09:58:24;;;;;;;14.73;3.65;;;;;;;27.68;62.28;93432.56;5007079;28;19940;-81
2023/10/08 10:00:52;;;;;;;11.35;3.00;;;;;;;27.49;62.71;93426.22;4995037;28;20525;-81
2023/10/08 10:03:20;;;;;;;13.95;4.25;;;;;;;27.59;63.16;93422.88;5014024;28;20048;-80
2023/10/08 10:05:48;;;;;;;16.05;3.55;;;;;;;27.68;63.35;93427.19;5007145;28;20117;-81
2023/10/08 10:08:15;;;;;;;11.00;2.97;;;;;;;27.78;61.66;93429.16;5016494;28;20077;-81
2023/10/08 10:10:47;;;;;;;12.52;3.28;;;;;;;27.65;60.48;93427.91;5015902;28;20038;-82
2023/10/08 10:13:13;;;;;;;12.38;3.30;;;;;;;27.69;63.21;93426.78;5017142;28;20030;-80
2023/10/08 10:15:42;;;;;;;11.93;3.25;;;;;;;27.47;58.66;93428.53;5008845;28;20032;-81
2023/10/08 10:18:16;;;;;;;14.05;3.25;;;;;;;27.97;55.41;93428.97;5030938;28;20038;-80
2023/10/08 10:20:46;;;;;;;13.27;2.85;;;;;;;28.39;58.25;93430.41;5015866;28;20030;-80
2023/10/08 10:23:36;;;;;;;15.45;3.75;;;;;;;28.17;60.99;93431.44;5016421;28;20034;-81
2023/10/08 10:26:02;;;;;;;13.43;3.35;;;;;;;28.37;54.66;93434.59;5010497;28;20045;-81
2023/10/08 10:28:29;;;;;;;11.23;3.15;;;;;;;28.19;59.79;93434.50;5015725;28;20038;-80
2023/10/08 10:30:56;;;;;;;9.75;3.08;;;;;;;27.90;58.85;93426.22;5015712;28;20034;-81
2023/10/08 10:33:30;;;;;;;15.65;3.65;;;;;;;27.72;62.40;93427.94;5015340;28;20111;-81
2023/10/08 10:35:55;;;;;;;11.70;3.28;;;;;;;27.86;54.32;93428.13;5011997;28;20050;-83
2023/10/08 10:38:26;;;;;;;12.95;3.20;;;;;;;28.06;53.04;93425.19;5009796;28;20041;-83
2023/10/08 10:41:07;;;;;;;15.77;3.40;;;;;;;28.27;60.34;93421.88;5027952;28;20429;-82
2023/10/08 10:43:33;;;;;;;13.52;3.47;;;;;;;28.16;56.64;93422.56;5010498;28;22088;-84
2023/10/08 10:46:24;;;;;;;17.08;3.50;;;;;;;28.09;61.57;93424.44;5013547;28;20317;-83
2023/10/08 10:49:04;;;;;;;19.90;3.83;;;;;;;27.93;61.25;93417.41;5010787;28;20062;-83
2023/10/08 10:51:30;;;;;;;13.00;2.95;;;;;;;28.26;56.02;93409.53;5016783;28;20037;-82
2023/10/08 10:54:07;;;;;;;12.98;3.00;;;;;;;28.60;52.39;93412.84;5012538;28;20405;-84
2023/10/08 10:56:40;;;;;;;13.90;3.45;;;;;;;28.34;61.82;93408.44;5009621;28;20056;-80
2023/10/08 10:59:27;;;;;;;14.38;3.90;;;;;;;28.27;57.85;93403.78;5012506;28;20662;-83
2023/10/08 11:02:05;;;;;;;13.80;2.88;;;;;;;28.54;57.34;93401.66;5013218;28;20388;-84
2023/10/08 11:04:31;;;;;;;13.40;3.25;;;;;;;29.09;55.89;93398.03;5030453;28;20058;-83
2023/10/08 11:07:04;;;;;;;12.45;3.33;;;;;;;29.01;60.58;93393.78;5013001;28;20429;-80
2023/10/08 11:09:39;;;;;;;9.60;3.70;;;;;;;28.47;60.08;93398.16;5013814;28;20037;-80
2023/10/08 11:12:12;;;;;;;11.43;3.38;;;;;;;28.09;61.73;93401.00;5029499;28;20045;-84
2023/10/08 11:14:42;;;;;;;12.65;3.70;;;;;;;28.01;61.43;93394.00;5014997;28;20042;-81
2023/10/08 11:17:23;;;;;;;11.57;2.95;;;;;;;28.00;59.60;93395.94;5015255;28;20059;-82
2023/10/08 11:19:48;;;;;;;11.73;2.80;;;;;;;28.45;59.40;93396.59;5023596;28;20072;-83
2023/10/08 11:22:18;;;;;;;14.88;3.53;;;;;;;28.82;58.39;93382.16;5025173;28;20034;-84
2023/10/08 11:24:48;;;;;;;15.57;3.90;;;;;;;29.04;58.66;93385.69;5016110;28;20034;-84
2023/10/08 11:27:35;;;;;;;14.52;3.17;;;;;;;29.17;51.58;93375.34;5012497;28;20112;-82
2023/10/08 11:30:01;;;;;;;11.07;3.72;;;;;;;29.30;54.12;93380.41;5015436;28;20042;-83
2023/10/08 11:32:27;;;;;;;11.50;2.92;;;;;;;29.53;48.75;93374.63;5017833;28;20030;-84
2023/10/08 11:34:59;;;;;;;21.45;3.60;;;;;;;29.69;41.74;93380.44;4999817;28;20041;-82
2023/10/08 11:37:30;;;;;;;13.70;3.33;;;;;;;29.91;43.03;93381.22;4998513;28;20026;-84
2023/10/08 11:39:59;;;;;;;10.88;3.08;;;;;;;30.09;39.97;93368.47;5016512;28;20040;-84
2023/10/08 11:44:59;;;;;;;9.77;2.97;;;;;;;28.99;49.78;93369.13;5016632;28;20068;-86
2023/10/08 11:47:31;;;;;;;16.77;3.47;;;;;;;29.22;51.05;93371.50;5015438;28;20038;-85
2023/10/08 11:50:09;;;;;;;14.73;3.28;;;;;;;29.54;49.30;93365.38;5014549;28;20042;-82
2023/10/08 11:52:42;;;;;;;17.38;2.97;;;;;;;29.77;41.05;93365.81;5030722;28;20448;-85
2023/10/08 11:55:09;;;;;;;13.50;2.88;;;;;;;29.94;38.45;93364.22;4999411;28;20045;-81
2023/10/08 11:57:45;;;;;;;11.05;3.33;;;;;;;30.11;34.57;93361.91;5013815;28;20030;-85
2023/10/08 12:00:19;;;;;;;14.88;3.60;;;;;;;29.98;45.90;93356.16;5001899;28;20045;-85
2023/10/08 12:02:49;;;;;;;13.57;3.50;;;;;;;29.77;50.93;93354.25;5009988;28;20053;-82
2023/10/08 12:05:23;;;;;;;10.10;2.80;;;;;;;30.01;45.81;93352.66;5016034;28;20083;-82
2023/10/08 12:07:52;;;;;;;13.48;3.42;;;;;;;30.20;40.79;93348.78;5011740;28;20056;-83
2023/10/08 12:10:22;;;;;;;13.30;3.00;;;;;;;30.40;32.47;93352.63;4994195;28;20584;-84
2023/10/08 12:12:59;;;;;;;13.70;3.15;;;;;;;30.59;32.91;93345.97;5009215;28;20714;-81
2023/10/08 12:15:38;;;;;;;11.65;3.05;;;;;;;30.69;30.85;93336.28;5006564;28;20499;-82
2023/10/08 12:20:48;;;;;;;11.77;3.20;;;;;;;30.84;32.01;93331.59;5018161;28;20061;-82
2023/10/08 12:23:26;;;;;;;12.75;3.25;;;;;;;30.90;34.83;93330.81;5014196;28;20021;-83
2023/10/08 12:25:55;;;;;;;59.63;39.05;;;;;;;31.02;35.63;93331.53;5016672;28;20489;-83
2023/10/08 12:28:23;;;;;;;15.27;4.53;;;;;;;31.05;34.21;93330.72;5013013;28;20030;-82
2023/10/08 12:30:52;;;;;;;13.95;2.60;;;;;;;31.21;34.02;93322.91;5014130;28;20057;-82
2023/10/08 12:33:23;;;;;;;14.85;3.28;;;;;;;31.11;45.43;93329.13;5010754;28;20646;-82
2023/10/08 12:35:55;;;;;;;16.67;3.80;;;;;;;30.71;48.98;93313.13;5024953;28;20041;-83
2023/10/08 12:38:22;;;;;;;16.73;3.60;;;;;;;30.59;47.01;93321.66;5005544;28;20482;-83
2023/10/08 12:40:52;;;;;;;8.07;2.63;;;;;;;30.53;31.63;93317.06;4998504;28;20041;-83
2023/10/08 12:43:22;;;;;;;14.82;3.17;;;;;;;30.62;31.35;93320.91;5031237;28;20041;-84
2023/10/08 12:45:53;;;;;;;15.50;3.35;;;;;;;30.61;34.31;93316.63;5008441;28;20128;-83
2023/10/08 12:48:27;;;;;;;15.68;3.08;;;;;;;30.66;31.44;93320.88;5009684;28;20030;-84
2023/10/08 12:50:56;;;;;;;10.30;3.58;;;;;;;30.49;47.22;93317.84;5008639;28;20095;-82